This is the latest recevied weather packets stored in our database for station/object IU2RPR-3. If no packets are shown the sender has not sent any weather packets the latest 10 day(s).
| Time | Temp. | Humidity | Pressure | Rain* | Wind** | Luminosity | Snow |
|---|---|---|---|---|---|---|---|
| 1787901217 | 22.22° C | 90% | 1016.1 hPa | - | - | - | - |
| 1787900010 | 21.67° C | 96% | 1016.4 hPa | - | - | - | - |
| 1787898808 | 21.67° C | 95% | 1016.8 hPa | - | - | - | - |
| 1787897605 | 21.11° C | 93% | 1016.9 hPa | - | - | - | - |
| 1787896404 | 21.11° C | 99% | 1016.5 hPa | - | - | - | - |
| 1787895202 | 21.11° C | 98% | 1016.3 hPa | - | - | - | - |
| 1787893999 | 20.56° C | 99% | 1016.3 hPa | - | - | - | - |
| 1787892798 | 20.56° C | 99% | 1016.1 hPa | - | - | - | - |
| 1787891597 | 20° C | 99% | 1016.1 hPa | - | - | - | - |
| 1787890394 | 20.56° C | 99% | 1016.5 hPa | - | - | - | - |
| 1787889192 | 21.11° C | 98% | 1016.6 hPa | - | - | - | - |
| 1787887990 | 22.78° C | 78% | 1015.1 hPa | - | - | - | - |
| 1787886788 | 22.78° C | 76% | 1014.9 hPa | - | - | - | - |
| 1787885585 | 22.78° C | 74% | 1015.5 hPa | - | - | - | - |
| 1787884383 | 22.78° C | 74% | 1016.2 hPa | - | - | - | - |
| 1787883181 | 22.78° C | 75% | 1016.2 hPa | - | - | - | - |
| 1787881979 | 23.33° C | 73% | 1016.1 hPa | - | - | - | - |
| 1787880777 | 23.33° C | 74% | 1015.9 hPa | - | - | - | - |
| 1787879574 | 23.33° C | 71% | 1015.9 hPa | - | - | - | - |
| 1787878370 | 23.33° C | 71% | 1016 hPa | - | - | - | - |
| 1787877167 | 23.89° C | 71% | 1016 hPa | - | - | - | - |
* Rain since midnight (hover to see other rain measurements)
** Current wind speed in m/s (hover to see current wind gust speed)